Weelde, Belgium

12:05 PM CEST on July 25, 2016 (GMT +0200)
Tommelshof-WMR200 | | Change Station

Elev 90 ft 51.43 °N, 4.93 °E | Updated 8 seconds ago

Overcast
Overcast
71.6 °F
Feels Like 77 °F
N
0.9
Wind Variable Wind from SSW
Gusts 0.9 mph

Today
High -- | Low -- °F
--% Chance of Precip.
Yesterday
High -- | Low -- °F
Precip. -- in
Pressure 30.09 in
Visibility 6.2 miles
Clouds Mostly Cloudy 1200 ft
Overcast 1500 ft
Heat Index 77 °F
Dew Point 52 °F
Humidity 50%
Rainfall 0.00 in
Snow Depth Not available.
5:54 AM 9:37 PM
Waning Gibbous, 67% visible
METAR EHGR 250955Z AUTO 25006KT 210V290 9999 BKN012 OVC015 20/17 Q1019 GRN 24007KT 9999 FEW010 SCT012 BKN015 TEMPO 4500 -DZRA FEW006 SCT008 BKN010
Pressure 30.09 in
Visibility 6.2 miles
Clouds Mostly Cloudy 1200 ft
Overcast 1500 ft
Heat Index 77 °F
Dew Point 52 °F
Humidity 50%
Rainfall 0.00 in
Snow Depth Not available.
5:54 AM 9:37 PM
Waning Gibbous, 67% visible
METAR EHGR 250955Z AUTO 25006KT 210V290 9999 BKN012 OVC015 20/17 Q1019 GRN 24007KT 9999 FEW010 SCT012 BKN015 TEMPO 4500 -DZRA FEW006 SCT008 BKN010

10-Day Weather Forecast

×

Almanac

Astronomy

Jul. 25, 2016 Rise Set
Actual Time
Civil Twilight
Nautical Twilight
Astronomical Twilight
Moon
Length of Visible Light
Length of Day
Tomorrow will be .
, % of the Moon is Illuminated

Today's Extremes

Country Highs Country Lows

Community

WunderPhotos

Upload Photos

1,927,289 photos uploaded!

WunderBlog® & News

Nearby

Air Quality

  Air Quality AQ Index Pollutant
Not available.

Snow Depth

Station Depth Elevation

Earthquake Activity

City Distance Mag. Time & Date
Minimum magnitude displayed is 2.5.

Coastal Water Temperatures

Place Temperature

Stations

Nearby Weather Stations

Station Location Temp. Windchill Dew Point Humidity Wind Precip. Elev Updated Type